createdAt,value
2017-06-13T00:00:55.906Z,0
2017-06-13T00:01:41.013Z,0
2017-06-13T00:03:55.978Z,0
2017-06-13T00:04:56.003Z,0
2017-06-13T00:05:41.107Z,0
2017-06-13T00:06:56.055Z,0
2017-06-13T00:07:41.465Z,0
2017-06-13T00:09:41.507Z,0
2017-06-13T00:10:41.533Z,0
2017-06-13T00:11:41.557Z,0
2017-06-13T00:12:41.583Z,0
2017-06-13T00:13:41.608Z,0
2017-06-13T00:14:56.251Z,0
2017-06-13T00:15:41.656Z,0
2017-06-13T00:16:41.679Z,0
2017-06-13T00:17:41.705Z,0
2017-06-13T00:18:41.733Z,0
2017-06-13T00:19:41.756Z,0
2017-06-13T00:20:41.781Z,0
2017-06-13T00:21:41.805Z,0
2017-06-13T00:22:56.454Z,0
2017-06-13T00:23:41.858Z,0
2017-06-13T00:24:41.880Z,0
2017-06-13T00:25:41.904Z,0
2017-06-13T00:26:41.926Z,0
2017-06-13T00:27:41.649Z,0
2017-06-13T00:28:41.976Z,0
2017-06-13T00:29:42.003Z,0
2017-06-13T00:30:41.725Z,0
2017-06-13T00:31:42.050Z,0
2017-06-13T00:32:56.389Z,0
2017-06-13T00:33:56.718Z,0
2017-06-13T00:34:42.124Z,0
2017-06-13T00:35:56.768Z,0
2017-06-13T00:36:42.174Z,0
2017-06-13T00:37:42.199Z,0
2017-06-13T00:38:56.840Z,0
2017-06-13T00:39:41.952Z,0
2017-06-13T00:41:42.298Z,0
2017-06-13T00:42:42.322Z,0
2017-06-13T00:43:42.346Z,0
2017-06-13T00:44:42.369Z,0
2017-06-13T00:45:42.393Z,0
2017-06-13T00:46:42.425Z,0
2017-06-13T00:47:42.444Z,0
2017-06-13T00:48:42.518Z,0
2017-06-13T00:49:57.111Z,0
2017-06-13T00:50:42.519Z,0
2017-06-13T00:51:57.164Z,0
2017-06-13T00:52:42.568Z,0
2017-06-13T00:53:56.906Z,0
2017-06-13T00:56:42.688Z,0
2017-06-13T00:57:42.385Z,0
2017-06-13T00:58:42.717Z,0
2017-06-13T00:59:42.133Z,0
2017-06-13T01:00:42.462Z,0
2017-06-13T01:01:42.788Z,0
2017-06-13T01:02:42.813Z,0
2017-06-13T01:03:57.459Z,0
2017-06-13T01:04:57.479Z,0
2017-06-13T01:05:42.889Z,0
2017-06-13T01:06:42.913Z,0
2017-06-13T01:07:42.632Z,0
2017-06-13T01:08:42.959Z,0
2017-06-13T01:09:42.986Z,0
2017-06-13T01:10:43.011Z,0
2017-06-13T01:11:43.035Z,0
2017-06-13T01:12:42.755Z,0
2017-06-13T01:13:43.134Z,0
2017-06-13T01:14:43.107Z,0
2017-06-13T01:15:43.132Z,0
2017-06-13T01:16:42.852Z,0
2017-06-13T01:17:43.180Z,0
2017-06-13T01:18:42.902Z,0
2017-06-13T01:19:57.847Z,0
2017-06-13T01:20:43.255Z,0
2017-06-13T01:21:57.895Z,0
2017-06-13T01:22:57.921Z,0
2017-06-13T01:23:43.333Z,0
2017-06-13T01:24:43.358Z,0
2017-06-13T01:25:57.993Z,0
2017-06-13T01:26:43.401Z,0
2017-06-13T01:27:43.427Z,0
2017-06-13T01:28:43.449Z,0
2017-06-13T01:29:43.476Z,0
2017-06-13T01:30:43.503Z,0
2017-06-13T01:31:43.525Z,0
2017-06-13T01:32:43.551Z,0
2017-06-13T01:33:43.270Z,0
2017-06-13T01:34:43.296Z,0
2017-06-13T01:35:43.317Z,0
2017-06-13T01:36:58.263Z,0
2017-06-13T01:37:43.673Z,0
2017-06-13T01:38:43.693Z,0
2017-06-13T01:39:43.721Z,0
2017-06-13T01:40:43.748Z,0
2017-06-13T01:41:58.386Z,0
2017-06-13T01:42:43.793Z,0
2017-06-13T01:43:43.818Z,0
2017-06-13T01:44:43.847Z,0
2017-06-13T01:45:43.869Z,0
2017-06-13T01:46:43.589Z,0
2017-06-13T01:47:43.914Z,0
2017-06-13T01:48:43.946Z,0
2017-06-13T01:49:43.964Z,0
2017-06-13T01:50:43.989Z,0
2017-06-13T01:51:44.012Z,0
2017-06-13T01:52:44.041Z,0
2017-06-13T01:53:44.061Z,0
2017-06-13T01:54:43.782Z,0
2017-06-13T01:55:44.112Z,0
2017-06-13T01:56:44.136Z,0
2017-06-13T01:57:58.777Z,0
2017-06-13T01:58:44.183Z,0
2017-06-13T01:59:43.906Z,0
2017-06-13T02:00:44.234Z,0
2017-06-13T02:02:44.283Z,0
2017-06-13T02:03:44.306Z,0
2017-06-13T02:04:44.333Z,4
2017-06-13T02:05:44.353Z,4
2017-06-13T02:06:44.380Z,0
2017-06-13T02:07:44.402Z,4
2017-06-13T02:08:59.046Z,4
2017-06-13T02:09:59.069Z,0
2017-06-13T02:10:44.177Z,4
2017-06-13T02:11:44.504Z,4
2017-06-13T02:12:44.525Z,4
2017-06-13T02:13:59.171Z,4
2017-06-13T02:14:44.577Z,8
2017-06-13T02:15:43.998Z,4
2017-06-13T02:17:44.652Z,8
2017-06-13T02:18:44.370Z,8
2017-06-13T02:19:44.697Z,12
2017-06-13T02:20:44.723Z,12
2017-06-13T02:21:44.745Z,12
2017-06-13T02:22:59.389Z,16
2017-06-13T02:23:44.799Z,16
2017-06-13T02:24:59.437Z,20
2017-06-13T02:25:44.542Z,20
2017-06-13T02:26:59.487Z,24
2017-06-13T02:27:44.893Z,28
2017-06-13T02:28:59.537Z,28
2017-06-13T02:30:44.969Z,36
2017-06-13T02:31:44.993Z,40
2017-06-13T02:32:45.015Z,44
2017-06-13T02:33:45.041Z,48
2017-06-13T02:34:45.065Z,56
2017-06-13T02:35:45.090Z,60
2017-06-13T02:36:45.113Z,68
2017-06-13T02:37:45.137Z,72
2017-06-13T02:38:59.780Z,80
2017-06-13T02:39:45.186Z,88
2017-06-13T02:40:45.214Z,96
2017-06-13T02:41:45.236Z,104
2017-06-13T02:42:45.270Z,116
2017-06-13T02:43:45.286Z,124
2017-06-13T02:44:45.308Z,136
2017-06-13T02:45:45.333Z,148
2017-06-13T02:46:45.360Z,160
2017-06-13T02:47:45.388Z,172
2017-06-13T02:48:45.407Z,188
2017-06-13T02:49:45.430Z,208
2017-06-13T02:50:45.457Z,236
2017-06-13T02:51:45.485Z,264
2017-06-13T02:52:45.504Z,296
2017-06-13T02:53:45.528Z,340
2017-06-13T02:54:45.557Z,388
2017-06-13T02:55:45.275Z,444
2017-06-13T02:56:45.604Z,508
2017-06-13T02:58:00.245Z,588
2017-06-13T02:58:45.652Z,640
2017-06-13T03:01:00.317Z,852
2017-06-13T03:01:45.727Z,940
2017-06-13T03:03:45.776Z,1116
2017-06-13T03:04:45.797Z,1192
2017-06-13T03:05:45.830Z,1280
2017-06-13T03:06:45.895Z,1364
2017-06-13T03:07:45.873Z,1452
2017-06-13T03:08:45.895Z,1536
2017-06-13T03:09:45.924Z,1616
2017-06-13T03:11:00.562Z,1704
2017-06-13T03:11:45.969Z,1752
2017-06-13T03:12:45.993Z,1816
2017-06-13T03:14:46.041Z,1960
2017-06-13T03:15:46.067Z,2004
2017-06-13T03:17:00.406Z,2032
2017-06-13T03:19:46.163Z,2060
2017-06-13T03:20:45.889Z,2104
2017-06-13T03:21:46.217Z,2136
2017-06-13T03:22:46.240Z,2160
2017-06-13T03:23:46.265Z,2192
2017-06-13T03:24:46.291Z,2248
2017-06-13T03:25:46.312Z,2268
2017-06-13T03:26:46.333Z,2296
2017-06-13T03:27:46.360Z,2296
2017-06-13T03:28:46.387Z,2348
2017-06-13T03:30:01.025Z,2444
2017-06-13T03:30:46.433Z,2496
2017-06-13T03:31:46.459Z,2568
2017-06-13T03:33:01.100Z,2628
2017-06-13T03:33:46.505Z,2680
2017-06-13T03:35:46.559Z,2744
2017-06-13T03:36:46.274Z,2636
2017-06-13T03:37:46.602Z,2496
2017-06-13T03:38:46.626Z,2380
2017-06-13T03:39:46.654Z,2288
2017-06-13T03:40:46.677Z,2204
2017-06-13T03:41:46.704Z,2188
2017-06-13T03:43:01.343Z,2172
2017-06-13T03:45:01.391Z,2284
2017-06-13T03:46:01.416Z,2380
2017-06-13T03:46:46.826Z,2464
2017-06-13T03:48:01.161Z,2700
2017-06-13T03:49:01.187Z,2784
2017-06-13T03:49:46.897Z,2772
2017-06-13T03:50:46.925Z,2904
2017-06-13T03:51:46.641Z,3248
2017-06-13T03:52:46.972Z,3536
2017-06-13T03:53:46.994Z,3764
2017-06-13T03:54:47.019Z,4260
2017-06-13T03:55:46.739Z,4784
2017-06-13T03:57:01.686Z,4688
2017-06-13T03:57:47.092Z,5064
2017-06-13T03:58:47.150Z,5696
2017-06-13T04:00:01.759Z,7028
2017-06-13T04:01:01.788Z,6260
2017-06-13T04:01:46.885Z,5800
2017-06-13T04:02:47.215Z,6812
2017-06-13T04:04:01.862Z,6204
2017-06-13T04:04:47.299Z,5952
2017-06-13T04:06:47.010Z,5868
2017-06-13T04:07:47.338Z,7900
2017-06-13T04:08:47.365Z,9868
2017-06-13T04:09:47.387Z,20128
2017-06-13T04:10:47.411Z,37792
2017-06-13T04:11:47.438Z,46720
2017-06-13T04:12:47.461Z,47968
2017-06-13T04:13:47.488Z,49152
2017-06-13T04:14:47.513Z,48448
2017-06-13T04:15:47.536Z,51456
2017-06-13T04:16:47.572Z,51840
2017-06-13T04:17:47.586Z,51904
2017-06-13T04:18:47.615Z,51936
2017-06-13T04:19:47.641Z,52512
2017-06-13T04:20:47.669Z,51264
2017-06-13T04:21:47.696Z,51904
2017-06-13T04:23:47.447Z,56384
2017-06-13T04:24:47.478Z,58720
2017-06-13T04:25:47.505Z,59104
2017-06-13T04:26:47.834Z,58464
2017-06-13T04:27:47.912Z,57888
2017-06-13T04:29:02.512Z,61056
2017-06-13T04:30:02.541Z,62560
2017-06-13T04:31:02.569Z,64128
2017-06-13T04:31:47.979Z,62016
2017-06-13T04:33:02.628Z,60512
2017-06-13T04:33:48.040Z,61696
2017-06-13T04:34:48.068Z,64640
2017-06-13T04:36:02.720Z,65312
2017-06-13T04:36:48.128Z,64864
2017-06-13T04:37:48.161Z,62592
2017-06-13T04:38:47.887Z,63296
2017-06-13T04:39:48.228Z,67968
2017-06-13T04:40:47.950Z,66816
2017-06-13T04:41:48.288Z,65280
2017-06-13T04:42:48.315Z,67456
2017-06-13T04:44:02.969Z,68224
2017-06-13T04:45:03.000Z,67328
2017-06-13T04:46:03.046Z,68320
2017-06-13T04:46:48.449Z,64480
2017-06-13T04:48:03.115Z,62944
2017-06-13T04:49:48.540Z,65152
2017-06-13T04:50:48.572Z,69376
2017-06-13T04:52:03.224Z,69760
2017-06-13T04:52:48.639Z,69856
2017-06-13T04:53:48.673Z,70240
2017-06-13T04:54:48.705Z,68000
2017-06-13T04:55:48.748Z,73760
2017-06-13T04:56:48.770Z,76000
2017-06-13T04:57:48.809Z,76576
2017-06-13T04:58:48.837Z,56704
2017-06-13T04:59:48.875Z,49184
2017-06-13T05:00:48.906Z,55616
2017-06-13T05:01:48.941Z,75520
2017-06-13T05:02:48.974Z,80800
2017-06-13T05:03:49.006Z,67712
2017-06-13T05:04:48.435Z,79968
2017-06-13T05:05:49.073Z,83200
2017-06-13T05:06:49.111Z,82432
2017-06-13T05:08:03.762Z,57600
2017-06-13T05:08:49.174Z,53856
2017-06-13T05:10:48.942Z,27968
2017-06-13T05:11:49.008Z,44160
2017-06-13T05:12:49.314Z,72320
2017-06-13T05:13:49.345Z,34208
2017-06-13T05:14:49.380Z,82880
2017-06-13T05:15:49.414Z,87840
2017-06-13T05:16:49.451Z,90144
2017-06-13T05:18:04.100Z,83552
2017-06-13T05:18:49.516Z,28480
2017-06-13T05:21:04.204Z,60928
2017-06-13T05:21:49.617Z,14752
2017-06-13T05:22:49.650Z,66144
2017-06-13T05:24:04.302Z,13532
2017-06-13T05:25:49.751Z,20992
2017-06-13T05:26:49.783Z,21024
2017-06-13T05:27:49.815Z,18304
2017-06-13T05:28:49.549Z,36928
2017-06-13T05:29:49.577Z,21344
2017-06-13T05:30:49.913Z,67520
2017-06-13T05:31:49.642Z,67008
2017-06-13T05:32:49.976Z,70656
2017-06-13T05:33:50.007Z,24832
2017-06-13T05:34:50.041Z,16832
2017-06-13T05:35:50.074Z,27232
2017-06-13T05:36:49.802Z,28000
2017-06-13T05:37:50.136Z,16416
2017-06-13T05:39:04.793Z,13952
2017-06-13T05:39:50.203Z,16416
2017-06-13T05:41:50.262Z,23232
2017-06-13T05:42:50.290Z,13284
2017-06-13T05:43:50.323Z,13120
2017-06-13T05:44:50.050Z,13876
2017-06-13T05:45:50.382Z,14776
2017-06-13T05:46:50.412Z,10380
2017-06-13T05:47:50.449Z,7684
2017-06-13T05:48:50.473Z,8412
2017-06-13T05:50:05.122Z,7428
2017-06-13T05:50:50.537Z,9212
2017-06-13T05:51:50.562Z,34816
2017-06-13T05:52:50.594Z,17920
2017-06-13T05:54:50.650Z,23296
2017-06-13T05:55:50.681Z,23552
2017-06-13T05:56:50.711Z,20064
2017-06-13T05:57:50.739Z,14288
2017-06-13T05:58:50.768Z,12156
2017-06-13T05:59:50.796Z,11792
2017-06-13T06:00:50.827Z,12052
2017-06-13T06:01:50.861Z,15744
2017-06-13T06:02:50.892Z,17952
2017-06-13T06:05:05.257Z,16656
2017-06-13T06:05:50.971Z,15968
2017-06-13T06:06:50.997Z,62624
2017-06-13T06:07:51.028Z,17080
2017-06-13T06:09:51.083Z,19424
2017-06-13T06:11:05.731Z,102176
2017-06-13T06:12:51.173Z,103264
2017-06-13T06:13:51.200Z,97696
2017-06-13T06:14:51.231Z,94720
2017-06-13T06:15:51.262Z,25600
2017-06-13T06:16:51.290Z,19872
2017-06-13T06:17:51.320Z,21344
2017-06-13T06:19:05.972Z,20352
2017-06-13T06:19:51.380Z,34816
2017-06-13T06:20:51.414Z,46208
2017-06-13T06:22:06.063Z,62240
2017-06-13T06:22:51.476Z,18560
2017-06-13T06:23:51.205Z,10692
2017-06-13T06:25:06.157Z,8652
2017-06-13T06:25:51.568Z,9512
2017-06-13T06:27:06.219Z,10248
2017-06-13T06:27:51.326Z,12464
2017-06-13T06:28:51.359Z,20608
2017-06-13T06:29:51.710Z,12208
2017-06-13T06:30:51.420Z,12184
2017-06-13T06:31:51.752Z,10804
2017-06-13T06:32:51.785Z,10492
2017-06-13T06:33:51.862Z,10256
2017-06-13T06:34:51.845Z,10304
2017-06-13T06:35:51.872Z,11752
2017-06-13T06:36:51.901Z,13152
2017-06-13T06:37:51.932Z,14116
2017-06-13T06:38:51.960Z,13508
2017-06-13T06:39:51.988Z,19040
2017-06-13T06:40:52.018Z,26688
2017-06-13T06:41:52.050Z,22336
2017-06-13T06:43:06.696Z,21696
2017-06-13T06:43:51.801Z,38624
2017-06-13T06:44:52.141Z,15768
2017-06-13T06:46:52.197Z,13448
2017-06-13T06:47:52.220Z,89568
2017-06-13T06:48:51.946Z,19200
2017-06-13T06:49:52.278Z,17824
2017-06-13T06:50:52.006Z,23744
2017-06-13T06:51:52.340Z,14976
2017-06-13T06:52:52.418Z,16452
2017-06-13T06:54:52.431Z,11124
2017-06-13T06:56:52.490Z,8112
2017-06-13T06:57:52.514Z,7316
2017-06-13T06:59:07.166Z,7388
2017-06-13T06:59:52.272Z,5800
2017-06-13T07:00:52.603Z,5168
2017-06-13T07:01:52.631Z,4772
2017-06-13T07:02:52.355Z,4548
2017-06-13T07:03:52.687Z,5228
2017-06-13T07:04:52.718Z,6860
2017-06-13T07:05:52.744Z,64320
2017-06-13T07:06:52.165Z,14136
2017-06-13T07:08:52.827Z,60256
2017-06-13T07:09:52.877Z,37792
2017-06-13T07:12:52.950Z,30560
2017-06-13T07:14:07.592Z,66304
2017-06-13T07:14:53.003Z,80864
2017-06-13T07:15:53.032Z,15232
2017-06-13T07:16:53.061Z,21600
2017-06-13T07:17:53.104Z,14044
2017-06-13T07:18:53.134Z,27456
2017-06-13T07:19:53.151Z,9264
2017-06-13T07:20:53.180Z,6744
2017-06-13T07:21:53.213Z,5900
2017-06-13T07:22:53.238Z,6376
2017-06-13T07:23:53.268Z,5888
2017-06-13T07:24:53.304Z,5588
2017-06-13T07:25:53.022Z,5672
2017-06-13T07:27:53.389Z,6564
2017-06-13T07:28:53.414Z,6808
2017-06-13T07:29:53.447Z,6312
2017-06-13T07:30:53.469Z,4784
2017-06-13T07:31:53.499Z,4864
2017-06-13T07:32:53.529Z,4984
2017-06-13T07:33:53.605Z,3848
2017-06-13T07:34:53.585Z,3064
2017-06-13T07:35:53.615Z,2412
2017-06-13T07:36:53.641Z,2252
2017-06-13T07:37:53.666Z,2348
2017-06-13T07:38:53.694Z,2304
2017-06-13T07:39:53.723Z,2448
2017-06-13T07:40:53.751Z,2648
2017-06-13T07:41:53.472Z,2740
2017-06-13T07:43:53.900Z,3040
2017-06-13T07:44:53.556Z,3644
2017-06-13T07:46:08.506Z,7104
2017-06-13T07:46:53.915Z,7924
2017-06-13T07:47:53.946Z,7568
2017-06-13T07:48:53.666Z,8416
2017-06-13T07:49:53.996Z,8768
2017-06-13T07:50:54.025Z,9728
2017-06-13T07:51:54.054Z,9516
2017-06-13T07:52:54.114Z,7936
2017-06-13T07:53:54.103Z,6512
2017-06-13T07:54:54.138Z,6024
2017-06-13T07:55:54.159Z,8888
2017-06-13T07:56:54.237Z,7216
2017-06-13T07:58:08.832Z,5184
2017-06-13T07:58:54.239Z,4484
2017-06-13T07:59:54.270Z,5040
2017-06-13T08:00:54.296Z,4848
2017-06-13T08:02:08.675Z,4792
2017-06-13T08:02:54.351Z,5044
2017-06-13T08:05:54.429Z,5796
2017-06-13T08:06:54.454Z,6828
2017-06-13T08:07:54.485Z,7860
2017-06-13T08:08:54.510Z,10168
2017-06-13T08:10:08.853Z,29984
2017-06-13T08:10:54.564Z,20768
2017-06-13T08:11:54.589Z,15152
2017-06-13T08:12:54.618Z,17312
2017-06-13T08:14:54.368Z,16516
2017-06-13T08:15:54.700Z,14348
2017-06-13T08:16:54.727Z,22912
2017-06-13T08:18:09.374Z,26592
2017-06-13T08:18:54.476Z,23936
2017-06-13T08:19:54.860Z,21600
2017-06-13T08:20:54.838Z,16456
2017-06-13T08:21:54.560Z,13640
2017-06-13T08:22:54.593Z,11228
2017-06-13T08:23:54.621Z,9100
2017-06-13T08:25:09.572Z,6660
2017-06-13T08:25:54.979Z,5552
2017-06-13T08:26:55.005Z,4892
2017-06-13T08:28:09.652Z,4460
2017-06-13T08:28:55.066Z,4664
2017-06-13T08:29:55.089Z,5104
2017-06-13T08:31:55.145Z,5560
2017-06-13T08:33:09.790Z,5336
2017-06-13T08:34:09.816Z,5564
2017-06-13T08:34:54.994Z,5704
2017-06-13T08:35:54.953Z,5848
2017-06-13T08:36:55.336Z,5284
2017-06-13T08:37:55.325Z,5148
2017-06-13T08:39:55.368Z,5032
2017-06-13T08:40:55.390Z,5412
2017-06-13T08:41:55.434Z,6000
2017-06-13T08:42:55.453Z,6276
2017-06-13T08:44:10.092Z,5852
2017-06-13T08:44:55.501Z,5680
2017-06-13T08:45:55.829Z,5632
2017-06-13T08:46:55.556Z,5548
2017-06-13T08:47:55.279Z,5264
2017-06-13T08:49:10.227Z,5020
2017-06-13T08:49:55.638Z,4780
2017-06-13T08:50:55.669Z,4524
2017-06-13T08:51:55.690Z,3916
2017-06-13T08:52:55.717Z,3684
2017-06-13T08:53:55.441Z,3488
2017-06-13T08:54:55.770Z,3248
2017-06-13T08:55:55.495Z,3264
2017-06-13T08:56:55.525Z,3536
2017-06-13T08:57:55.849Z,4008
2017-06-13T08:58:55.878Z,4544
2017-06-13T08:59:55.907Z,4236
2017-06-13T09:00:55.933Z,3952
2017-06-13T09:01:55.652Z,3540
2017-06-13T09:02:55.680Z,3440
2017-06-13T09:03:56.012Z,3216
2017-06-13T09:04:56.038Z,2668
2017-06-13T09:06:56.093Z,1960
2017-06-13T09:07:56.120Z,1816
2017-06-13T09:08:56.143Z,1872
2017-06-13T09:09:55.874Z,2088
2017-06-13T09:10:56.197Z,2544
2017-06-13T09:11:56.224Z,3116
2017-06-13T09:12:55.943Z,4120
2017-06-13T09:13:56.275Z,4648
2017-06-13T09:14:56.304Z,4688
2017-06-13T09:15:56.330Z,4976
2017-06-13T09:17:56.380Z,5968
2017-06-13T09:18:56.103Z,7676
2017-06-13T09:19:56.437Z,9116
2017-06-13T09:21:11.080Z,10380
2017-06-13T09:21:56.487Z,10428
2017-06-13T09:22:56.211Z,10284
2017-06-13T09:23:56.543Z,11080
2017-06-13T09:24:56.564Z,11164
2017-06-13T09:25:56.591Z,11620
2017-06-13T09:26:56.919Z,11728
2017-06-13T09:27:56.643Z,11504
2017-06-13T09:28:56.671Z,11312
2017-06-13T09:30:11.317Z,10652
2017-06-13T09:30:56.722Z,10316
2017-06-13T09:32:11.418Z,9396
2017-06-13T09:34:11.424Z,10620
2017-06-13T09:35:56.861Z,9524
2017-06-13T09:37:11.502Z,9432
2017-06-13T09:38:56.939Z,7600
2017-06-13T09:39:56.968Z,6900
2017-06-13T09:40:56.995Z,6588
2017-06-13T09:41:57.022Z,5880
2017-06-13T09:42:57.047Z,5416
2017-06-13T09:43:57.073Z,4996
2017-06-13T09:44:57.103Z,5208
2017-06-13T09:45:57.128Z,5552
2017-06-13T09:46:57.155Z,5236
2017-06-13T09:47:57.180Z,4852
2017-06-13T09:50:11.851Z,5884
2017-06-13T09:50:57.260Z,6436
2017-06-13T09:53:11.930Z,6128
2017-06-13T09:53:57.340Z,5816
2017-06-13T09:54:57.370Z,6116
2017-06-13T09:55:57.397Z,6004
2017-06-13T09:56:57.422Z,6352
2017-06-13T09:57:57.448Z,6000
2017-06-13T09:58:57.475Z,5472
2017-06-13T09:59:57.503Z,5012
2017-06-13T10:01:11.942Z,4140
2017-06-13T10:02:12.173Z,3344
2017-06-13T10:02:57.582Z,2772
2017-06-13T10:03:57.304Z,2092
2017-06-13T10:05:12.251Z,1572
2017-06-13T10:05:57.357Z,1428
2017-06-13T10:06:57.690Z,1376
2017-06-13T10:07:57.409Z,1360
2017-06-13T10:09:12.058Z,1400
2017-06-13T10:09:57.464Z,1544
2017-06-13T10:10:57.791Z,2180
2017-06-13T10:11:57.526Z,3056
2017-06-13T10:13:57.870Z,4908
2017-06-13T10:14:57.897Z,5640
2017-06-13T10:15:57.923Z,6368
2017-06-13T10:16:57.949Z,6816
2017-06-13T10:17:57.977Z,7268
2017-06-13T10:18:58.002Z,7504
2017-06-13T10:19:58.030Z,7196
2017-06-13T10:20:58.055Z,6476
2017-06-13T10:22:12.400Z,5564
2017-06-13T10:22:58.111Z,5092
2017-06-13T10:24:12.756Z,4416
2017-06-13T10:25:58.190Z,3644
2017-06-13T10:26:58.215Z,3296
2017-06-13T10:28:12.866Z,3052
2017-06-13T10:28:58.266Z,3120
2017-06-13T10:29:57.989Z,3344
2017-06-13T10:31:12.941Z,3812
2017-06-13T10:32:12.966Z,4292
2017-06-13T10:32:58.371Z,4712
2017-06-13T10:34:13.017Z,5816
2017-06-13T10:35:13.041Z,7128
2017-06-13T10:36:13.073Z,8632
2017-06-13T10:37:58.502Z,10932
2017-06-13T10:38:58.528Z,12452
2017-06-13T10:39:58.559Z,13272
2017-06-13T10:41:58.609Z,13108
2017-06-13T10:42:58.686Z,12296
2017-06-13T10:43:58.362Z,11852
2017-06-13T10:44:58.687Z,11392
2017-06-13T10:45:58.718Z,10940
2017-06-13T10:46:58.741Z,10552
2017-06-13T10:47:58.461Z,10284
2017-06-13T10:48:58.793Z,10036
2017-06-13T10:49:58.820Z,9664
2017-06-13T10:50:58.848Z,9288
2017-06-13T10:52:13.491Z,8904
2017-06-13T10:53:13.517Z,9108
2017-06-13T10:53:58.626Z,9140
2017-06-13T10:56:13.604Z,8192
2017-06-13T10:56:59.006Z,7956
2017-06-13T10:57:59.035Z,7628
2017-06-13T10:58:59.062Z,7292
2017-06-13T10:59:59.088Z,7196
2017-06-13T11:00:59.115Z,7428
2017-06-13T11:01:59.142Z,7208
2017-06-13T11:02:59.169Z,6660
2017-06-13T11:04:13.815Z,6664
2017-06-13T11:05:13.841Z,6836
2017-06-13T11:05:59.257Z,7124
2017-06-13T11:07:13.893Z,7972
2017-06-13T11:07:59.307Z,8404
2017-06-13T11:09:13.947Z,7972
2017-06-13T11:09:59.355Z,7072
2017-06-13T11:12:14.027Z,5348
2017-06-13T11:13:59.159Z,3920
2017-06-13T11:14:59.490Z,3384
2017-06-13T11:15:59.517Z,2972
2017-06-13T11:16:59.542Z,2600
2017-06-13T11:17:59.568Z,2352
2017-06-13T11:18:59.598Z,2200
2017-06-13T11:19:59.319Z,2052
2017-06-13T11:21:14.269Z,2168
2017-06-13T11:21:59.673Z,2296
2017-06-13T11:22:59.701Z,2600
2017-06-13T11:23:59.730Z,3036
2017-06-13T11:25:14.372Z,3780
2017-06-13T11:25:59.780Z,4856
2017-06-13T11:26:59.812Z,5612
2017-06-13T11:28:14.453Z,5896
2017-06-13T11:29:59.889Z,7548
2017-06-13T11:30:59.915Z,7700
2017-06-13T11:31:59.640Z,7296
2017-06-13T11:32:59.970Z,6532
2017-06-13T11:34:00.007Z,5944
2017-06-13T11:35:00.019Z,5356
2017-06-13T11:36:00.045Z,4960
2017-06-13T11:37:00.070Z,4668
2017-06-13T11:38:00.099Z,4668
2017-06-13T11:38:59.820Z,4936
2017-06-13T11:40:00.153Z,5344
2017-06-13T11:41:00.177Z,5720
2017-06-13T11:43:00.233Z,5260
2017-06-13T11:44:14.873Z,4712
2017-06-13T11:45:00.282Z,4624
2017-06-13T11:46:00.314Z,4336
2017-06-13T11:47:00.544Z,4224
2017-06-13T11:48:00.361Z,4360
2017-06-13T11:49:00.082Z,4408
2017-06-13T11:50:00.412Z,4608
2017-06-13T11:51:00.441Z,4512
2017-06-13T11:52:00.465Z,4084
2017-06-13T11:53:00.492Z,4124
2017-06-13T11:54:00.521Z,4560
2017-06-13T11:55:00.557Z,5048
2017-06-13T11:56:00.582Z,4836
2017-06-13T11:58:00.623Z,3720
2017-06-13T11:59:15.271Z,3436
2017-06-13T12:00:00.678Z,3096
2017-06-13T12:01:00.405Z,2544
2017-06-13T12:02:00.430Z,2156
2017-06-13T12:03:01.059Z,2036
2017-06-13T12:04:00.782Z,2120
2017-06-13T12:05:00.818Z,2112
2017-06-13T12:06:00.534Z,2168
2017-06-13T12:07:00.557Z,2296
2017-06-13T12:08:00.887Z,2536
2017-06-13T12:09:00.911Z,2720
2017-06-13T12:10:00.939Z,2772
2017-06-13T12:11:00.967Z,2944
2017-06-13T12:12:00.994Z,3036
2017-06-13T12:13:01.016Z,2972
2017-06-13T12:14:01.044Z,2908
2017-06-13T12:15:01.076Z,2676
2017-06-13T12:17:01.161Z,2404
2017-06-13T12:18:01.149Z,2188
2017-06-13T12:19:01.173Z,2096
2017-06-13T12:20:01.198Z,2436
2017-06-13T12:21:00.922Z,2564
2017-06-13T12:22:01.301Z,2420
2017-06-13T12:23:01.279Z,2456
2017-06-13T12:24:01.304Z,2488
2017-06-13T12:25:01.329Z,2656
2017-06-13T12:27:01.400Z,3544
2017-06-13T12:28:16.025Z,3608
2017-06-13T12:29:01.434Z,3412
2017-06-13T12:30:15.772Z,2960
2017-06-13T12:31:16.105Z,2828
2017-06-13T12:32:01.512Z,2860
2017-06-13T12:33:01.540Z,2796
2017-06-13T12:34:01.562Z,2828
2017-06-13T12:35:01.588Z,3132
2017-06-13T12:36:01.616Z,3276
2017-06-13T12:37:01.642Z,3844
2017-06-13T12:38:01.667Z,4476
2017-06-13T12:39:01.691Z,4908
2017-06-13T12:40:01.720Z,5592
2017-06-13T12:41:16.058Z,7064
2017-06-13T12:42:01.767Z,8052
2017-06-13T12:43:16.413Z,9544
2017-06-13T12:44:16.469Z,10856
2017-06-13T12:45:16.464Z,11708
2017-06-13T12:46:01.879Z,12048
2017-06-13T12:47:16.519Z,12676
2017-06-13T12:48:02.224Z,13080
2017-06-13T12:49:01.951Z,13504
2017-06-13T12:51:02.004Z,13672
2017-06-13T12:52:02.031Z,14124
2017-06-13T12:53:02.058Z,14216
2017-06-13T12:54:02.084Z,14340
2017-06-13T12:55:16.730Z,13848
2017-06-13T12:56:02.138Z,13808
2017-06-13T12:57:02.162Z,14136
2017-06-13T12:58:01.885Z,14312
2017-06-13T12:59:16.533Z,14544
2017-06-13T13:00:16.861Z,14568
2017-06-13T13:01:02.318Z,14648
2017-06-13T13:02:02.298Z,14112
2017-06-13T13:03:16.941Z,13476
2017-06-13T13:04:02.350Z,14248
2017-06-13T13:05:02.384Z,15932
2017-06-13T13:06:02.408Z,15732
2017-06-13T13:08:02.161Z,12320
2017-06-13T13:09:02.185Z,11000
2017-06-13T13:10:02.517Z,9924
2017-06-13T13:11:02.241Z,9076
2017-06-13T13:12:02.569Z,8656
2017-06-13T13:13:17.218Z,8320
2017-06-13T13:14:02.631Z,8276
2017-06-13T13:15:17.271Z,7880
2017-06-13T13:16:17.300Z,8348
2017-06-13T13:17:02.708Z,8520
2017-06-13T13:19:17.382Z,9196
2017-06-13T13:20:02.790Z,8700
2017-06-13T13:21:02.817Z,8296
2017-06-13T13:22:02.848Z,7952
2017-06-13T13:23:02.874Z,7116
2017-06-13T13:24:02.899Z,6680
2017-06-13T13:25:02.936Z,6884
2017-06-13T13:26:02.652Z,7324
2017-06-13T13:27:02.983Z,7692
2017-06-13T13:28:03.009Z,8096
2017-06-13T13:29:03.036Z,8652
2017-06-13T13:30:03.062Z,10608
2017-06-13T13:31:03.093Z,11312
2017-06-13T13:32:03.120Z,12436
2017-06-13T13:33:03.148Z,12480
2017-06-13T13:34:17.797Z,10976
2017-06-13T13:35:03.201Z,10380
2017-06-13T13:37:03.260Z,9828
2017-06-13T13:38:03.283Z,8936
2017-06-13T13:39:03.340Z,8472
2017-06-13T13:40:03.338Z,8824
2017-06-13T13:41:03.367Z,9780
2017-06-13T13:42:03.393Z,9200
2017-06-13T13:43:18.089Z,11472
2017-06-13T13:44:03.448Z,8836
2017-06-13T13:45:03.477Z,9484
2017-06-13T13:46:03.505Z,8864
2017-06-13T13:47:18.146Z,8636
2017-06-13T13:48:03.559Z,8364
2017-06-13T13:49:03.588Z,8556
2017-06-13T13:50:03.612Z,8856
2017-06-13T13:51:03.644Z,10184
2017-06-13T13:52:03.664Z,9996
2017-06-13T13:53:03.702Z,10460
2017-06-13T13:54:03.773Z,8992
2017-06-13T13:55:03.749Z,9820
2017-06-13T13:56:03.779Z,9168
2017-06-13T13:57:03.807Z,10336
2017-06-13T13:58:03.528Z,11716
2017-06-13T13:59:03.860Z,11456
2017-06-13T14:00:18.506Z,11432
2017-06-13T14:01:03.918Z,11308
2017-06-13T14:02:03.943Z,10364
2017-06-13T14:03:03.972Z,8712
2017-06-13T14:04:04.000Z,9260
2017-06-13T14:05:04.029Z,8604
2017-06-13T14:06:18.696Z,8024
2017-06-13T14:07:04.083Z,8052
2017-06-13T14:08:04.121Z,7896
2017-06-13T14:09:04.138Z,7868
2017-06-13T14:10:03.860Z,7696
2017-06-13T14:11:04.192Z,6984
2017-06-13T14:12:04.221Z,6644
2017-06-13T14:13:03.941Z,6516
2017-06-13T14:14:04.276Z,6128
2017-06-13T14:15:04.304Z,5564
2017-06-13T14:16:04.030Z,5288
2017-06-13T14:17:18.976Z,5180
2017-06-13T14:18:04.081Z,5160
2017-06-13T14:19:04.411Z,4748
2017-06-13T14:20:04.448Z,4380
2017-06-13T14:21:04.466Z,3824
2017-06-13T14:22:19.112Z,3092
2017-06-13T14:23:04.521Z,2724
2017-06-13T14:25:04.575Z,1852
2017-06-13T14:26:04.604Z,1572
2017-06-13T14:27:04.630Z,1320
2017-06-13T14:28:04.658Z,1252
2017-06-13T14:29:04.381Z,1136